createdAt,value
2023-03-11T00:01:09.044Z,25.20
2023-03-11T00:06:16.929Z,25.00
2023-03-11T00:11:25.599Z,30.10
2023-03-11T00:16:33.387Z,29.40
2023-03-11T00:21:41.116Z,28.40
2023-03-11T00:26:48.713Z,21.00
2023-03-11T00:31:56.679Z,47.60
2023-03-11T00:37:04.555Z,39.50
2023-03-11T00:42:12.633Z,36.30
2023-03-11T00:47:20.314Z,44.20
2023-03-11T00:52:29.413Z,36.00
2023-03-11T00:57:37.353Z,31.70
2023-03-11T01:02:45.315Z,21.10
2023-03-11T01:07:53.641Z,26.60
2023-03-11T01:13:01.911Z,22.10
2023-03-11T01:18:10.431Z,23.20
2023-03-11T01:23:19.290Z,19.60
2023-03-11T01:28:27.990Z,20.60
2023-03-11T01:33:36.193Z,20.60
2023-03-11T01:38:44.818Z,24.80
2023-03-11T01:43:56.419Z,25.80
2023-03-11T01:49:16.731Z,25.00
2023-03-11T01:54:27.777Z,20.10
2023-03-11T01:59:39.731Z,19.60
2023-03-11T02:04:48.346Z,16.10
2023-03-11T02:09:56.133Z,16.50
2023-03-11T02:15:04.352Z,18.70
2023-03-11T02:20:30.238Z,21.70
2023-03-11T02:25:44.165Z,20.20
2023-03-11T02:30:54.203Z,20.50
2023-03-11T02:36:03.324Z,20.90
2023-03-11T02:41:11.890Z,20.20
2023-03-11T02:46:21.262Z,25.80
2023-03-11T02:51:30.360Z,23.90
2023-03-11T02:56:38.678Z,22.10
2023-03-11T03:01:47.022Z,23.40
2023-03-11T03:06:54.608Z,19.20
2023-03-11T03:12:03.482Z,21.70
2023-03-11T03:17:12.329Z,18.00
2023-03-11T03:22:21.305Z,18.90
2023-03-11T03:27:30.044Z,17.60
2023-03-11T03:32:42.053Z,20.30
2023-03-11T03:37:52.960Z,22.40
2023-03-11T03:43:02.547Z,21.90
2023-03-11T03:48:11.120Z,20.10
2023-03-11T03:53:23.127Z,21.50
2023-03-11T03:58:31.295Z,19.60
2023-03-11T04:03:39.958Z,20.30
2023-03-11T04:08:52.603Z,22.70
2023-03-11T04:14:03.071Z,23.60
2023-03-11T04:19:13.750Z,19.30
2023-03-11T04:24:21.274Z,21.70
2023-03-11T04:29:29.164Z,19.50
2023-03-11T04:34:36.624Z,20.70
2023-03-11T04:39:44.887Z,20.70
2023-03-11T04:44:53.018Z,23.20
2023-03-11T04:50:01.734Z,22.60
2023-03-11T04:55:14.264Z,22.60
2023-03-11T05:00:25.420Z,25.20
2023-03-11T05:05:41.725Z,29.60
2023-03-11T05:10:50.365Z,27.40
2023-03-11T05:15:59.040Z,27.40
2023-03-11T05:21:07.185Z,25.30
2023-03-11T05:26:15.375Z,25.40
2023-03-11T05:31:23.960Z,24.10
2023-03-11T05:36:32.370Z,29.50
2023-03-11T05:41:41.055Z,24.60
2023-03-11T05:46:49.516Z,25.80
2023-03-11T05:51:58.900Z,21.80
2023-03-11T05:57:08.870Z,20.40
2023-03-11T06:02:18.674Z,15.10
2023-03-11T06:07:26.636Z,15.80
2023-03-11T06:12:35.582Z,12.30
2023-03-11T06:17:52.809Z,14.80
2023-03-11T06:23:01.264Z,10.60
2023-03-11T06:28:09.827Z,11.90
2023-03-11T06:33:18.381Z,13.10
2023-03-11T06:38:27.857Z,15.30
2023-03-11T06:43:37.393Z,12.70
2023-03-11T06:48:47.609Z,14.90
2023-03-11T06:53:57.676Z,11.20
2023-03-11T06:59:06.422Z,9.10
2023-03-11T07:04:15.689Z,10.40
2023-03-11T07:09:25.744Z,10.50
2023-03-11T07:14:34.366Z,10.10
2023-03-11T07:19:42.821Z,10.40
2023-03-11T07:24:51.765Z,8.50
2023-03-11T07:30:00.153Z,8.70
2023-03-11T07:35:09.534Z,8.20
2023-03-11T07:40:18.596Z,9.20
2023-03-11T07:45:26.997Z,8.50
2023-03-11T07:50:34.471Z,6.30
2023-03-11T07:55:41.852Z,8.20
2023-03-11T08:00:49.321Z,6.60
2023-03-11T08:05:57.336Z,7.60
2023-03-11T08:11:07.552Z,7.70
2023-03-11T08:16:17.622Z,6.70
2023-03-11T08:21:27.642Z,3.90
2023-03-11T08:26:35.941Z,6.50
2023-03-11T08:31:44.739Z,3.80
2023-03-11T08:36:52.874Z,11.20
2023-03-11T08:42:01.597Z,6.70
2023-03-11T08:47:10.603Z,5.00
2023-03-11T08:52:19.188Z,4.10
2023-03-11T08:57:27.305Z,5.30
2023-03-11T09:02:35.522Z,8.70
2023-03-11T09:07:45.143Z,9.50
2023-03-11T09:12:53.277Z,11.80
2023-03-11T09:18:01.492Z,8.60
2023-03-11T09:23:08.989Z,10.00
2023-03-11T09:28:17.417Z,13.00
2023-03-11T09:33:26.147Z,11.50
2023-03-11T09:38:35.091Z,15.60
2023-03-11T09:44:00.500Z,14.40
2023-03-11T09:49:17.691Z,8.90
2023-03-11T09:54:25.819Z,8.80
2023-03-11T09:59:35.318Z,8.40
2023-03-11T10:04:50.325Z,8.30
2023-03-11T10:09:59.895Z,7.90
2023-03-11T10:15:17.062Z,7.60
2023-03-11T10:20:29.825Z,9.60
2023-03-11T10:25:49.521Z,7.10
2023-03-11T10:31:02.783Z,9.50
2023-03-11T10:36:18.023Z,13.00
2023-03-11T10:41:34.141Z,6.50
2023-03-11T10:46:41.853Z,6.80
2023-03-11T10:51:52.132Z,9.80
2023-03-11T10:57:01.702Z,7.40
2023-03-11T11:02:28.053Z,7.70
2023-03-11T11:07:40.028Z,8.80
2023-03-11T11:12:59.658Z,11.20
2023-03-11T11:18:20.576Z,12.60
2023-03-11T11:23:36.335Z,9.80
2023-03-11T11:28:44.973Z,11.10
2023-03-11T11:33:56.730Z,9.60
2023-03-11T11:39:14.085Z,11.90
2023-03-11T11:44:30.788Z,14.80
2023-03-11T11:49:47.389Z,10.90
2023-03-11T11:55:01.128Z,14.40
2023-03-11T12:00:22.009Z,8.40
2023-03-11T12:05:34.949Z,6.40
2023-03-11T12:10:49.144Z,8.80
2023-03-11T12:16:03.244Z,7.50
2023-03-11T12:21:27.843Z,7.70
2023-03-11T12:26:39.789Z,11.30
2023-03-11T12:31:50.153Z,8.80
2023-03-11T12:37:03.665Z,9.30
2023-03-11T12:42:23.021Z,12.50
2023-03-11T12:47:35.241Z,12.40
2023-03-11T12:52:57.017Z,8.60
2023-03-11T12:58:34.765Z,8.50
2023-03-11T13:03:53.348Z,5.30
2023-03-11T13:09:02.544Z,6.80
2023-03-11T13:14:34.624Z,9.40
2023-03-11T13:20:02.028Z,5.80
2023-03-11T13:30:54.310Z,8.20
2023-03-11T13:36:34.922Z,8.90
2023-03-11T13:41:46.197Z,8.20
2023-03-11T13:46:58.775Z,9.90
2023-03-11T13:52:10.307Z,7.40
2023-03-11T13:57:34.973Z,7.00
2023-03-11T14:02:51.435Z,7.20
2023-03-11T14:08:22.268Z,7.30
2023-03-11T14:13:31.658Z,7.20
2023-03-11T14:18:42.022Z,5.60
2023-03-11T14:23:51.813Z,6.70
2023-03-11T14:29:03.527Z,5.70
2023-03-11T14:34:19.907Z,5.80
2023-03-11T14:39:33.045Z,7.00
2023-03-11T14:44:45.581Z,6.40
2023-03-11T14:49:55.319Z,4.80
2023-03-11T14:55:05.650Z,6.70
2023-03-11T15:00:21.277Z,7.20
2023-03-11T15:05:35.946Z,3.40
2023-03-11T15:11:03.527Z,4.90
2023-03-11T15:16:34.298Z,6.00
2023-03-11T15:21:50.102Z,5.30
2023-03-11T15:27:00.409Z,4.90
2023-03-11T15:32:28.493Z,6.90
2023-03-11T15:37:36.963Z,3.80
2023-03-11T15:42:44.905Z,4.50
2023-03-11T15:47:53.699Z,4.00
2023-03-11T15:53:03.889Z,6.20
2023-03-11T15:58:14.091Z,3.10
2023-03-11T16:03:22.461Z,2.50
2023-03-11T16:08:31.023Z,2.80
2023-03-11T16:13:39.887Z,3.50
2023-03-11T16:18:47.268Z,4.30
2023-03-11T16:23:55.833Z,2.60
2023-03-11T16:29:18.211Z,3.20
2023-03-11T16:34:27.691Z,1.90
2023-03-11T16:39:35.965Z,1.80
2023-03-11T16:44:43.415Z,3.30
2023-03-11T16:49:53.926Z,2.30
2023-03-11T16:55:02.786Z,3.00
2023-03-11T17:00:13.623Z,2.70
2023-03-11T17:05:22.343Z,4.00
2023-03-11T17:10:31.055Z,2.00
2023-03-11T17:15:43.331Z,2.30
2023-03-11T17:20:51.606Z,6.30
2023-03-11T17:26:01.653Z,3.20
2023-03-11T17:31:15.288Z,2.80
2023-03-11T17:36:24.069Z,3.40
2023-03-11T17:41:32.752Z,2.60
2023-03-11T17:46:41.707Z,1.90
2023-03-11T17:51:51.532Z,1.60
2023-03-11T17:57:00.255Z,3.60
2023-03-11T18:02:09.211Z,1.70
2023-03-11T18:07:17.591Z,3.10
2023-03-11T18:12:27.147Z,2.80
2023-03-11T18:17:35.948Z,2.80
2023-03-11T18:22:46.736Z,1.60
2023-03-11T18:27:56.124Z,2.80
2023-03-11T18:33:04.270Z,2.80
2023-03-11T18:38:13.205Z,2.90
2023-03-11T18:43:21.810Z,3.80
2023-03-11T18:48:30.206Z,2.00
2023-03-11T18:53:38.173Z,1.70
2023-03-11T18:58:47.320Z,1.80
2023-03-11T19:03:55.966Z,1.50
2023-03-11T19:09:05.938Z,2.90
2023-03-11T19:14:14.551Z,4.90
2023-03-11T19:19:22.012Z,4.00
2023-03-11T19:24:30.364Z,4.30
2023-03-11T19:29:38.031Z,3.90
2023-03-11T19:34:45.399Z,4.00
2023-03-11T19:39:52.996Z,2.70
2023-03-11T19:45:01.672Z,3.00
2023-03-11T19:50:11.199Z,3.80
2023-03-11T19:55:19.848Z,2.70
2023-03-11T20:00:29.708Z,1.80
2023-03-11T20:05:39.336Z,3.20
2023-03-11T20:10:49.724Z,1.50
2023-03-11T20:15:58.062Z,3.20
2023-03-11T20:21:09.253Z,2.20
2023-03-11T20:26:20.113Z,2.70
2023-03-11T20:31:30.739Z,2.00
2023-03-11T20:36:39.341Z,2.10
2023-03-11T20:41:47.751Z,4.40
2023-03-11T20:46:56.595Z,2.80
2023-03-11T20:52:05.112Z,2.60
2023-03-11T20:57:12.764Z,2.80
2023-03-11T21:02:21.359Z,5.30
2023-03-11T21:07:30.395Z,2.60
2023-03-11T21:12:39.342Z,6.20
2023-03-11T21:17:48.183Z,4.50
2023-03-11T21:22:56.771Z,6.80
2023-03-11T21:28:05.525Z,4.70
2023-03-11T21:33:14.587Z,5.70
2023-03-11T21:38:22.969Z,6.60
2023-03-11T21:43:32.122Z,5.80
2023-03-11T21:48:41.319Z,4.70
2023-03-11T21:53:49.206Z,5.60
2023-03-11T21:58:57.497Z,5.20
2023-03-11T22:04:05.210Z,10.80
2023-03-11T22:09:12.606Z,3.40
2023-03-11T22:14:20.886Z,8.70
2023-03-11T22:19:29.425Z,5.50
2023-03-11T22:24:37.799Z,7.60
2023-03-11T22:29:46.196Z,5.90
2023-03-11T22:34:54.596Z,5.10
2023-03-11T22:40:02.825Z,5.50
2023-03-11T22:45:12.528Z,5.50
2023-03-11T22:50:21.789Z,9.70
2023-03-11T22:55:30.359Z,5.60
2023-03-11T23:00:38.940Z,6.30
2023-03-11T23:05:47.373Z,7.00
2023-03-11T23:10:55.785Z,5.40
2023-03-11T23:16:08.658Z,7.40
2023-03-11T23:21:21.817Z,5.70
2023-03-11T23:26:31.549Z,8.70
2023-03-11T23:31:39.838Z,5.50
2023-03-11T23:36:47.144Z,5.80
2023-03-11T23:41:56.106Z,5.10
2023-03-11T23:47:03.457Z,4.80
2023-03-11T23:52:12.390Z,6.30
2023-03-11T23:57:20.092Z,6.00
